Walton, Texas
Current Conditions -  °F | °C
As of 2:15 PM on Thursday 29 Jan 2015 (Local Time) from KF44 Reporting Station
Clear Clear  
Wind Chill: 72°   Ceiling: Unl
Heat Index: 72°   Visibility: 10mi
Dew Point: 37°   Wind: 8mph
Humidity: 29%   Direction: 340°NNW
Pressure: 30.21"   Gusts: NA
Location:  32.2052°N, 95.8517°W
Report Text: KF44 292015Z AUTO 34007KT 10SM CLR 22/03 A3021 RMK AO2
Loading
Personal Weather Stations






























Interactive Weather Map New forecast layout! Learn more

10-Day Weather Forecast

Advertisements
Track Severe Weather on mobile